Time;durP1;ratioP1;P1;durP2;ratioP2;P2;SDS_P1;SDS_P2;PMS_P1;PMS_P2;Temp;Humidity;BMP_temperature;BMP_pressure;BME280_temperature;BME280_humidity;BME280_pressure;Samples;Min_cycle;Max_cycle;Signal;HPM_P1;HPM_P2
2022/06/12 00:01:14;;;;;;;4.05;3.15;;;;;;;16.30;97.54;94736.44;1699745;83;21567;-54
2022/06/12 00:03:43;;;;;;;11.28;4.20;;;;;;;16.33;97.82;94733.47;1722395;83;20955;-54
2022/06/12 00:06:12;;;;;;;4.95;3.92;;;;;;;16.37;98.31;94731.91;1722209;83;20955;-54
2022/06/12 00:08:40;;;;;;;6.95;4.50;;;;;;;16.43;98.47;94738.30;1699702;83;21001;-54
2022/06/12 00:11:11;;;;;;;6.42;4.33;;;;;;;16.49;98.25;94740.52;1722825;81;20951;-54
2022/06/12 00:13:44;;;;;;;6.70;3.60;;;;;;;16.49;97.82;94742.68;1722240;83;21257;-53
2022/06/12 00:16:13;;;;;;;3.55;3.15;;;;;;;16.48;97.78;94741.16;1722665;83;20994;-53
2022/06/12 00:18:41;;;;;;;4.53;3.25;;;;;;;16.49;97.30;94734.95;1722240;83;21434;-53
2022/06/12 00:21:13;;;;;;;4.30;3.90;;;;;;;16.43;96.83;94738.30;1722190;83;20994;-54
2022/06/12 00:23:56;;;;;;;5.42;4.05;;;;;;;16.42;96.23;94732.60;1722185;82;20938;-54
2022/06/12 00:26:29;;;;;;;7.35;3.67;;;;;;;16.40;96.54;94721.97;1722513;83;21862;-54
2022/06/12 00:29:10;;;;;;;4.47;3.72;;;;;;;16.46;96.54;94713.11;1722223;83;21494;-54
2022/06/12 00:31:41;;;;;;;6.80;3.40;;;;;;;16.52;96.21;94715.32;1722812;81;21006;-54
2022/06/12 00:34:10;;;;;;;7.70;4.25;;;;;;;16.50;95.51;94715.66;1699893;83;21129;-54
2022/06/12 00:36:39;;;;;;;6.80;4.10;;;;;;;16.44;95.39;94721.77;1722460;83;20995;-54
2022/06/12 00:39:08;;;;;;;3.55;3.22;;;;;;;16.39;95.78;94722.47;1722150;83;21204;-54
2022/06/12 00:41:37;;;;;;;4.33;3.37;;;;;;;16.35;95.93;94724.70;1722407;83;21505;-54
2022/06/12 00:44:05;;;;;;;4.60;3.60;;;;;;;16.38;96.74;94720.95;1715521;81;21058;-54
2022/06/12 00:46:48;;;;;;;4.45;3.85;;;;;;;16.43;96.79;94713.30;1704572;84;20974;-53
2022/06/12 00:49:33;;;;;;;6.62;3.95;;;;;;;16.43;97.24;94709.91;1704257;82;21475;-54
2022/06/12 00:52:12;;;;;;;5.17;3.47;;;;;;;16.47;97.24;94713.85;1704678;84;21112;-54
2022/06/12 00:54:41;;;;;;;5.12;3.35;;;;;;;16.49;97.35;94712.13;1702449;84;20943;-54
2022/06/12 00:57:10;;;;;;;3.52;3.22;;;;;;;16.51;97.30;94715.19;1704661;84;20982;-54
2022/06/12 00:59:46;;;;;;;5.28;3.58;;;;;;;16.55;97.12;94720.53;1704479;84;20979;-54
2022/06/12 01:02:16;;;;;;;3.83;3.52;;;;;;;16.54;96.68;94703.09;1704450;84;20951;-53
2022/06/12 01:07:39;;;;;;;4.10;3.42;;;;;;;16.54;96.58;94705.88;1704156;84;20940;-53
2022/06/12 01:10:10;;;;;;;5.70;3.30;;;;;;;16.55;97.03;94708.04;1695832;83;20999;-54
2022/06/12 01:12:48;;;;;;;4.28;3.85;;;;;;;16.55;96.57;94719.89;1712549;83;21002;-53
2022/06/12 01:15:39;;;;;;;6.12;3.67;;;;;;;16.52;96.64;94729.20;1712299;83;21041;-54
2022/06/12 01:18:10;;;;;;;5.72;3.33;;;;;;;16.51;97.25;94720.73;1682801;83;21162;-54
2022/06/12 01:20:43;;;;;;;5.95;3.42;;;;;;;16.53;97.15;94723.04;1709420;82;21007;-54
2022/06/12 01:23:32;;;;;;;4.08;3.58;;;;;;;16.50;96.88;94719.82;1653236;84;21426;-54
2022/06/12 01:26:27;;;;;;;5.30;3.98;;;;;;;16.51;97.24;94714.44;1695082;84;21014;-55
2022/06/12 01:29:19;;;;;;;4.90;3.90;;;;;;;16.50;97.17;94717.05;1704125;84;21534;-54
2022/06/12 01:31:51;;;;;;;;;;;;;;;16.48;97.08;94709.22;1633836;84;21294;-54
2022/06/12 01:34:29;;;;;;;3.77;3.47;;;;;;;16.45;96.60;94701.86;1696625;84;20086;-53
2022/06/12 01:37:08;;;;;;;5.95;3.52;;;;;;;16.41;96.92;94713.80;1704055;84;21046;-53
2022/06/12 01:40:16;;;;;;;4.50;3.55;;;;;;;16.39;97.24;94709.97;1704003;82;21037;-53
2022/06/12 01:43:10;;;;;;;4.47;3.47;;;;;;;16.37;97.24;94709.70;1631323;86;21557;-53
2022/06/12 01:46:05;;;;;;;3.92;3.52;;;;;;;16.28;97.14;94711.95;1703698;83;21199;-54
2022/06/12 01:49:18;;;;;;;3.72;3.02;;;;;;;16.23;97.43;94711.87;1720367;83;21006;-54
2022/06/12 01:52:01;;;;;;;4.17;3.77;;;;;;;16.22;97.81;94717.28;1720249;83;21010;-54
2022/06/12 01:55:00;;;;;;;6.87;3.75;;;;;;;16.23;98.32;94707.70;1720325;83;20986;-53
2022/06/12 01:58:06;;;;;;;6.62;3.85;;;;;;;16.27;98.75;94709.65;1720143;83;21066;-54
2022/06/12 02:00:34;;;;;;;7.28;3.67;;;;;;;16.30;98.77;94708.67;1720625;83;21122;-54
2022/06/12 02:03:15;;;;;;;3.83;3.50;;;;;;;16.35;98.51;94696.92;1720469;83;20972;-53
2022/06/12 02:05:49;;;;;;;3.53;3.23;;;;;;;16.33;97.66;94692.45;1720618;83;20962;-53
2022/06/12 02:08:23;;;;;;;5.03;3.72;;;;;;;16.30;97.85;94698.95;1720135;83;21313;-54
2022/06/12 02:10:55;;;;;;;;;;;;;;;16.28;97.37;94698.68;1723099;83;20982;-54
2022/06/12 02:13:30;;;;;;;10.70;4.05;;;;;;;16.23;97.32;94691.05;1720425;81;21133;-54
2022/06/12 02:16:04;;;;;;;3.67;3.37;;;;;;;16.14;97.99;94692.58;1720287;83;20947;-54
2022/06/12 02:18:37;;;;;;;4.00;3.65;;;;;;;16.13;98.35;94693.05;1719434;83;20987;-54
2022/06/12 02:21:20;;;;;;;3.95;3.65;;;;;;;16.11;98.63;94693.52;1719463;83;21057;-53
2022/06/12 02:24:06;;;;;;;5.28;4.42;;;;;;;16.10;98.66;94689.22;1720328;83;21002;-54
2022/06/12 02:26:46;;;;;;;4.45;4.00;;;;;;;16.08;99.01;94704.84;1720139;83;21341;-54
2022/06/12 02:29:20;;;;;;;7.83;4.17;;;;;;;16.07;99.32;94717.95;1720156;83;21029;-55
2022/06/12 02:31:51;;;;;;;3.75;3.37;;;;;;;16.03;99.30;94718.78;1720229;83;21446;-54
2022/06/12 02:34:29;;;;;;;4.75;3.58;;;;;;;16.05;99.95;94730.16;1720589;83;21442;-53
2022/06/12 02:37:01;;;;;;;5.37;4.20;;;;;;;16.10;100.00;94730.86;1720247;81;20991;-54
2022/06/12 02:39:38;;;;;;;4.92;4.42;;;;;;;16.16;100.00;94719.84;1720316;83;21411;-54
2022/06/12 02:42:13;;;;;;;7.03;4.00;;;;;;;16.23;100.00;94730.52;1720275;83;21137;-53
2022/06/12 02:44:55;;;;;;;5.33;4.17;;;;;;;16.24;99.58;94724.50;1713410;81;20959;-53
2022/06/12 02:47:30;;;;;;;5.35;3.77;;;;;;;16.25;99.77;94730.83;1702336;84;20959;-54
2022/06/12 02:49:58;;;;;;;4.28;3.87;;;;;;;16.27;99.54;94732.50;1702850;84;21484;-54
2022/06/12 02:52:43;;;;;;;4.58;3.87;;;;;;;16.26;99.49;94730.33;1704161;84;21336;-53
2022/06/12 02:55:46;;;;;;;4.62;3.92;;;;;;;16.26;99.50;94735.14;1704556;84;21411;-53
2022/06/12 02:58:26;;;;;;;5.00;4.12;;;;;;;16.22;99.11;94724.23;1755648;81;21469;-54
2022/06/12 03:01:01;;;;;;;4.53;3.92;;;;;;;16.22;99.40;94730.39;1767750;80;21528;-53
2022/06/12 03:03:49;;;;;;;4.75;3.67;;;;;;;16.21;98.96;94730.25;1761922;81;20950;-53
2022/06/12 03:06:18;;;;;;;5.55;4.87;;;;;;;16.15;98.80;94725.25;1753593;81;21256;-53
2022/06/12 03:08:49;;;;;;;5.40;4.50;;;;;;;16.15;99.65;94739.91;1761335;79;21481;-54
2022/06/12 03:11:21;;;;;;;3.87;3.58;;;;;;;16.16;99.40;94742.05;1761651;81;21022;-53
2022/06/12 03:13:51;;;;;;;5.45;4.40;;;;;;;16.16;99.29;94746.98;1761423;81;20982;-53
2022/06/12 03:16:33;;;;;;;6.58;3.62;;;;;;;16.18;99.45;94758.38;1761703;81;20977;-53
2022/06/12 03:19:13;;;;;;;4.40;4.00;;;;;;;16.32;100.00;94758.92;1761568;81;21283;-53
2022/06/12 03:22:12;;;;;;;6.50;3.70;;;;;;;16.32;100.00;94758.92;1761439;81;21694;-53
2022/06/12 03:24:54;;;;;;;6.40;3.60;;;;;;;16.42;99.96;94756.20;1761275;81;20922;-54
2022/06/12 03:27:51;;;;;;;3.37;3.08;;;;;;;16.41;98.71;94758.23;1761575;81;20954;-53
2022/06/12 03:30:31;;;;;;;4.70;3.45;;;;;;;16.39;98.32;94754.41;1761347;81;20966;-54
2022/06/12 03:33:25;;;;;;;10.58;8.08;;;;;;;16.33;97.99;94750.77;1740253;81;21835;-54
2022/06/12 03:36:11;;;;;;;8.28;6.65;;;;;;;16.32;98.75;94756.16;1761219;80;20950;-54
2022/06/12 03:39:01;;;;;;;13.55;8.20;;;;;;;16.32;98.63;94754.77;1761317;81;21037;-54
2022/06/12 03:41:37;;;;;;;25.40;11.35;;;;;;;16.26;98.83;94753.93;1742226;81;21312;-54
2022/06/12 03:44:28;;;;;;;7.90;5.37;;;;;;;16.25;98.87;94762.13;1761302;81;21092;-54
2022/06/12 03:47:32;;;;;;;9.20;5.33;;;;;;;16.21;98.96;94769.89;1761298;80;21306;-53
2022/06/12 03:50:10;;;;;;;8.70;4.97;;;;;;;16.16;99.63;94778.91;1761206;81;20985;-53
2022/06/12 03:52:45;;;;;;;5.83;5.17;;;;;;;16.14;99.99;94788.34;1703416;81;21053;-53
2022/06/12 03:55:20;;;;;;;5.83;4.67;;;;;;;16.11;100.00;94781.59;1761560;81;20954;-53
2022/06/12 03:57:52;;;;;;;5.00;4.50;;;;;;;16.15;100.00;94790.48;1761331;81;20994;-53
2022/06/12 04:00:34;;;;;;;7.97;6.08;;;;;;;16.19;100.00;94793.20;1722175;82;21178;-53
2022/06/12 04:03:31;;;;;;;7.10;6.35;;;;;;;16.17;100.00;94785.98;1742668;80;21410;-54
2022/06/12 04:06:03;;;;;;;8.03;6.33;;;;;;;16.10;100.00;94778.04;1761431;81;20983;-54
2022/06/12 04:08:41;;;;;;;8.30;7.17;;;;;;;16.07;100.00;94776.23;1740010;81;21001;-54
2022/06/12 04:11:10;;;;;;;6.97;5.45;;;;;;;16.07;100.00;94774.84;1760772;81;21430;-54
2022/06/12 04:13:39;;;;;;;5.72;4.20;;;;;;;16.05;100.00;94774.56;1739981;80;21865;-54
2022/06/12 04:16:38;;;;;;;4.75;4.35;;;;;;;16.04;100.00;94779.20;1761203;81;20931;-54
2022/06/12 04:19:09;;;;;;;11.80;10.60;;;;;;;16.02;100.00;94778.91;1761416;81;20985;-54
2022/06/12 04:22:09;;;;;;;5.58;5.08;;;;;;;15.99;100.00;94775.11;1740081;81;21469;-53
2022/06/12 04:24:47;;;;;;;4.42;3.92;;;;;;;15.98;100.00;94772.80;1761347;81;21021;-53
2022/06/12 04:27:35;;;;;;;5.28;3.62;;;;;;;15.99;100.00;94777.89;1740067;81;21809;-53
2022/06/12 04:30:26;;;;;;;4.60;4.20;;;;;;;15.99;100.00;94782.05;1761179;81;20924;-53
2022/06/12 04:33:24;;;;;;;5.45;4.95;;;;;;;15.96;100.00;94789.95;1761621;81;21049;-54
2022/06/12 04:35:55;;;;;;;5.22;4.72;;;;;;;15.96;100.00;94806.60;1761281;81;20997;-54
2022/06/12 04:38:22;;;;;;;5.45;4.50;;;;;;;16.03;100.00;94799.27;1740543;81;20950;-53
2022/06/12 04:40:51;;;;;;;4.08;3.67;;;;;;;16.03;100.00;94792.33;1761216;80;21042;-53
2022/06/12 04:43:19;;;;;;;5.67;4.87;;;;;;;16.01;100.00;94792.66;1740204;81;21486;-53
2022/06/12 04:45:48;;;;;;;7.03;4.85;;;;;;;15.99;100.00;94798.70;1744104;80;20989;-53
2022/06/12 04:48:33;;;;;;;5.75;5.25;;;;;;;15.99;100.00;94793.15;1787994;78;21245;-54
2022/06/12 04:51:01;;;;;;;5.78;4.80;;;;;;;16.00;100.00;94799.45;1726283;81;20925;-54
2022/06/12 04:53:30;;;;;;;9.25;5.17;;;;;;;16.00;100.00;94793.29;1772508;79;21267;-54
2022/06/12 04:55:58;;;;;;;6.97;5.12;;;;;;;16.06;100.00;94801.07;1772280;79;20993;-55
2022/06/12 04:58:27;;;;;;;6.37;5.40;;;;;;;16.17;100.00;94799.87;1772155;81;20949;-54
2022/06/12 05:00:55;;;;;;;8.38;5.50;;;;;;;16.25;100.00;94803.77;1772463;80;21515;-55
2022/06/12 05:03:24;;;;;;;7.10;6.28;;;;;;;16.30;100.00;94808.63;1751049;81;20993;-54
2022/06/12 05:05:53;;;;;;;7.35;5.42;;;;;;;16.33;100.00;94805.66;1772071;81;21152;-54
2022/06/12 05:08:22;;;;;;;6.75;4.97;;;;;;;16.40;100.00;94807.30;1772041;81;20926;-53
2022/06/12 05:10:51;;;;;;;8.50;6.10;;;;;;;16.45;100.00;94795.50;1772089;80;20950;-54
2022/06/12 05:13:19;;;;;;;6.33;5.72;;;;;;;16.46;100.00;94802.59;1772100;81;21157;-54
2022/06/12 05:15:48;;;;;;;9.38;6.10;;;;;;;16.49;100.00;94798.23;1772083;80;20989;-54
2022/06/12 05:18:16;;;;;;;8.50;5.70;;;;;;;16.59;100.00;94804.42;1772093;79;22056;-54
2022/06/12 05:20:46;;;;;;;6.28;5.67;;;;;;;16.70;100.00;94805.33;1772089;81;21473;-54
2022/06/12 05:23:15;;;;;;;7.30;5.20;;;;;;;16.79;100.00;94810.00;1772078;81;21021;-54
2022/06/12 05:25:43;;;;;;;6.65;4.97;;;;;;;16.87;99.51;94812.52;1772156;80;21437;-54
2022/06/12 05:28:15;;;;;;;6.17;5.37;;;;;;;16.93;98.11;94809.17;1772190;81;20940;-54
2022/06/12 05:30:43;;;;;;;5.90;5.40;;;;;;;16.98;97.46;94806.47;1772298;80;21223;-53
2022/06/12 05:33:11;;;;;;;9.18;5.30;;;;;;;17.02;97.06;94806.23;1772101;80;20933;-54
2022/06/12 05:35:41;;;;;;;10.45;8.43;;;;;;;17.05;96.85;94808.04;1772080;81;20954;-54
2022/06/12 05:38:10;;;;;;;6.67;5.78;;;;;;;17.06;97.06;94808.95;1772438;79;20961;-54
2022/06/12 05:40:39;;;;;;;7.83;5.65;;;;;;;17.10;96.44;94812.28;1772089;81;20989;-53
2022/06/12 05:43:08;;;;;;;8.05;5.28;;;;;;;17.11;96.12;94807.50;1772288;80;21093;-54
2022/06/12 05:45:36;;;;;;;7.83;5.80;;;;;;;17.07;96.04;94812.52;1751008;81;21004;-54
2022/06/12 05:48:19;;;;;;;8.18;6.50;;;;;;;17.09;96.40;94812.15;1772152;80;20973;-55
2022/06/12 05:50:54;;;;;;;8.38;6.53;;;;;;;17.14;96.43;94812.86;1772261;81;20982;-54
2022/06/12 05:53:23;;;;;;;7.53;5.97;;;;;;;17.23;95.97;94814.09;1751850;81;20942;-54
2022/06/12 05:55:52;;;;;;;6.83;5.45;;;;;;;17.32;95.92;94813.17;1751406;81;21137;-54
2022/06/12 05:58:20;;;;;;;6.78;5.10;;;;;;;17.38;95.37;94811.24;1772554;79;21066;-54
2022/06/12 06:00:50;;;;;;;6.28;5.05;;;;;;;17.43;95.12;94811.95;1772253;81;21024;-54
2022/06/12 06:03:19;;;;;;;6.87;6.15;;;;;;;17.51;94.61;94810.25;1750797;81;20997;-54
2022/06/12 06:05:48;;;;;;;6.55;5.92;;;;;;;17.55;94.17;94805.23;1772288;79;20985;-55
2022/06/12 06:08:16;;;;;;;8.58;6.72;;;;;;;17.63;93.87;94813.30;1750854;81;23351;-55
2022/06/12 06:10:46;;;;;;;9.83;8.93;;;;;;;17.75;94.00;94816.30;1751089;81;20969;-54
2022/06/12 06:13:14;;;;;;;9.10;6.62;;;;;;;17.90;94.82;94821.13;1772207;81;21446;-54
2022/06/12 06:15:47;;;;;;;14.90;7.47;;;;;;;18.06;94.27;94821.91;1772253;80;20953;-55
2022/06/12 06:18:15;;;;;;;7.03;6.33;;;;;;;18.18;93.77;94817.97;1772580;81;21093;-55
2022/06/12 06:20:46;;;;;;;6.28;5.75;;;;;;;18.25;92.22;94813.47;1772273;80;21545;-55
2022/06/12 06:23:14;;;;;;;8.98;6.10;;;;;;;18.23;90.75;94818.77;1772469;80;20942;-54
2022/06/12 06:25:43;;;;;;;6.72;6.12;;;;;;;18.19;89.53;94814.06;1772165;80;20982;-53
2022/06/12 06:28:12;;;;;;;7.72;6.45;;;;;;;18.19;89.45;94817.46;1751719;81;21425;-54
2022/06/12 06:30:40;;;;;;;7.22;6.50;;;;;;;18.23;89.26;94811.81;1772230;80;21424;-55
2022/06/12 06:33:09;;;;;;;7.50;6.78;;;;;;;18.33;89.03;94807.62;1772429;81;21881;-55
2022/06/12 06:35:37;;;;;;;6.37;5.67;;;;;;;18.42;88.35;94806.67;1772110;79;20969;-55
2022/06/12 06:38:06;;;;;;;7.28;6.37;;;;;;;18.47;87.58;94807.34;1772582;80;21037;-55
2022/06/12 06:40:34;;;;;;;8.18;7.15;;;;;;;18.52;87.21;94806.60;1772177;80;20954;-55
2022/06/12 06:43:02;;;;;;;6.83;6.28;;;;;;;18.47;86.95;94809.48;1772197;81;20937;-55
2022/06/12 06:48:17;;;;;;;6.95;6.25;;;;;;;18.51;86.56;94807.25;1772174;81;21037;-55
2022/06/12 06:50:46;;;;;;;7.30;6.60;;;;;;;18.64;87.15;94812.39;1772640;79;21404;-55
2022/06/12 06:53:14;;;;;;;6.90;5.97;;;;;;;18.80;87.26;94812.47;1772343;80;21409;-54
2022/06/12 06:55:42;;;;;;;7.85;6.90;;;;;;;18.98;85.82;94814.84;1772234;79;21421;-56
2022/06/12 06:58:13;;;;;;;10.13;7.22;;;;;;;19.16;84.93;94816.47;1772169;81;21142;-54
2022/06/12 07:00:42;;;;;;;6.87;5.70;;;;;;;19.28;82.28;94803.48;1726049;81;20942;-56
2022/06/12 07:03:10;;;;;;;6.55;5.20;;;;;;;19.35;81.51;94812.76;1772263;80;20934;-55
2022/06/12 07:05:40;;;;;;;7.05;6.45;;;;;;;19.40;80.89;94811.26;1772573;79;21001;-55
2022/06/12 07:08:09;;;;;;;7.70;6.90;;;;;;;19.43;80.60;94808.85;1772195;81;20986;-54
2022/06/12 07:10:39;;;;;;;7.15;6.45;;;;;;;19.42;80.15;94811.52;1772501;80;21102;-55
2022/06/12 07:13:07;;;;;;;6.97;6.28;;;;;;;19.41;80.52;94808.59;1712598;81;21465;-54
2022/06/12 07:15:37;;;;;;;6.72;6.17;;;;;;;19.37;80.57;94818.59;1772250;80;21472;-55
2022/06/12 07:18:07;;;;;;;7.83;6.90;;;;;;;19.38;80.11;94815.93;1772319;80;21029;-55
2022/06/12 07:20:39;;;;;;;36.85;30.17;;;;;;;19.40;79.27;94816.19;1772187;80;21029;-55
2022/06/12 07:23:09;;;;;;;11.35;10.13;;;;;;;19.48;79.49;94820.04;1772092;80;21213;-54
2022/06/12 07:25:40;;;;;;;7.58;6.47;;;;;;;19.63;79.13;94821.98;1749738;81;21032;-54
2022/06/12 07:28:08;;;;;;;5.87;5.30;;;;;;;19.69;78.64;94821.36;1772387;81;21449;-54
2022/06/12 07:30:37;;;;;;;29.87;23.47;;;;;;;19.67;77.69;94829.48;1772413;80;21021;-55
2022/06/12 07:33:06;;;;;;;16.70;14.55;;;;;;;19.68;78.03;94827.44;1772166;79;21036;-55
2022/06/12 07:35:35;;;;;;;10.32;8.80;;;;;;;19.77;78.58;94820.98;1751533;80;21262;-56
2022/06/12 07:38:02;;;;;;;6.75;6.15;;;;;;;19.92;76.98;94828.50;1772268;81;20980;-55
2022/06/12 07:40:38;;;;;;;5.92;5.33;;;;;;;20.13;76.92;94817.25;1750885;81;20957;-54
2022/06/12 07:43:08;;;;;;;5.47;4.97;;;;;;;20.28;75.21;94824.76;1772169;81;21020;-55
2022/06/12 07:45:38;;;;;;;6.30;5.70;;;;;;;20.35;75.45;94816.63;1752475;80;21119;-55
2022/06/12 07:48:06;;;;;;;7.00;6.37;;;;;;;20.41;73.32;94805.45;1767671;80;21121;-55
2022/06/12 07:50:37;;;;;;;5.62;5.12;;;;;;;20.54;74.72;94811.30;1746159;81;20945;-54
2022/06/12 07:53:05;;;;;;;5.70;5.20;;;;;;;20.71;74.43;94807.84;1746401;81;20998;-54
2022/06/12 07:55:33;;;;;;;6.22;5.00;;;;;;;20.81;72.58;94809.08;1767557;81;20993;-54
2022/06/12 07:58:02;;;;;;;6.97;5.72;;;;;;;20.88;72.00;94807.17;1767361;80;21455;-55
2022/06/12 08:00:30;;;;;;;8.43;6.03;;;;;;;20.97;72.81;94806.29;1767594;80;21047;-55
2022/06/12 08:02:59;;;;;;;6.80;5.47;;;;;;;21.19;71.95;94799.84;1767113;79;21033;-55
2022/06/12 08:05:29;;;;;;;6.62;5.58;;;;;;;21.44;71.38;94798.73;1767487;79;20989;-55
2022/06/12 08:07:58;;;;;;;5.67;4.87;;;;;;;21.64;69.69;94799.15;1767259;81;20965;-54
2022/06/12 08:10:27;;;;;;;9.05;5.80;;;;;;;21.75;67.85;94799.73;1746299;81;21041;-54
2022/06/12 08:12:56;;;;;;;6.20;5.60;;;;;;;21.77;67.06;94795.77;1767442;81;21193;-54
2022/06/12 08:15:27;;;;;;;7.78;4.95;;;;;;;21.75;68.00;94796.92;1767234;81;21044;-54
2022/06/12 08:17:56;;;;;;;7.40;5.05;;;;;;;21.77;67.94;94785.95;1746078;80;21001;-54
2022/06/12 08:20:25;;;;;;;5.50;5.00;;;;;;;21.76;68.44;94804.05;1767199;79;21434;-54
2022/06/12 08:26:06;;;;;;;8.18;4.87;;;;;;;21.65;67.54;94800.67;1749323;80;21763;-55
2022/06/12 08:28:38;;;;;;;4.75;4.03;;;;;;;21.57;67.14;94810.87;1767969;79;20977;-55
2022/06/12 08:31:08;;;;;;;5.80;4.78;;;;;;;21.52;65.92;94804.67;1767562;80;20986;-54
2022/06/12 08:33:37;;;;;;;3.90;3.60;;;;;;;21.51;64.98;94800.98;1746296;81;20997;-54
2022/06/12 08:36:07;;;;;;;4.75;3.60;;;;;;;21.62;64.89;94804.52;1767564;80;20938;-56
2022/06/12 08:38:35;;;;;;;6.75;4.03;;;;;;;21.84;64.47;94798.77;1767294;80;21098;-55
2022/06/12 08:41:16;;;;;;;4.65;3.60;;;;;;;22.08;63.25;94796.83;1746110;81;20934;-56
2022/06/12 08:43:58;;;;;;;4.10;3.70;;;;;;;22.23;63.69;94801.44;1759618;81;20977;-55
2022/06/12 08:46:31;;;;;;;;;;;;;;;22.33;62.68;94797.01;1770571;80;21480;-54
2022/06/12 08:49:13;;;;;;;6.40;3.77;;;;;;;22.44;63.16;94810.23;1772252;79;20128;-54
2022/06/12 08:51:45;;;;;;;6.97;4.10;;;;;;;22.56;61.97;94807.43;1772364;80;21134;-55
2022/06/12 08:54:23;;;;;;;7.28;6.58;;;;;;;22.66;61.60;94797.41;1772245;80;20934;-55
2022/06/12 08:56:55;;;;;;;4.92;4.50;;;;;;;22.74;60.50;94803.33;1751123;81;21398;-55
2022/06/12 08:59:40;;;;;;;4.80;3.60;;;;;;;22.82;62.02;94802.84;1772302;81;20949;-54
2022/06/12 09:02:21;;;;;;;4.85;3.75;;;;;;;22.95;59.60;94801.58;1751272;81;21052;-54
2022/06/12 09:04:50;;;;;;;6.25;3.75;;;;;;;23.03;60.19;94803.90;1769268;80;21074;-55
2022/06/12 09:07:46;;;;;;;5.97;3.90;;;;;;;23.21;60.18;94799.00;1750574;81;21028;-54
2022/06/12 09:10:25;;;;;;;5.10;3.50;;;;;;;23.42;58.66;94807.70;1771752;79;21476;-56
2022/06/12 09:13:16;;;;;;;4.58;3.95;;;;;;;23.55;58.27;94805.00;1772483;80;21020;-54
2022/06/12 09:15:59;;;;;;;4.40;4.00;;;;;;;23.44;57.43;94803.72;1754472;80;21385;-55
2022/06/12 09:18:50;;;;;;;3.95;3.65;;;;;;;23.40;59.03;94803.27;1772201;81;21243;-54
2022/06/12 09:21:53;;;;;;;4.45;3.77;;;;;;;23.46;59.37;94805.36;1743602;81;21328;-56
2022/06/12 09:24:55;;;;;;;4.85;3.70;;;;;;;23.43;57.73;94798.73;1772255;79;20985;-55
2022/06/12 09:27:47;;;;;;;4.83;3.30;;;;;;;23.36;58.23;94802.16;1772140;80;20937;-55
2022/06/12 09:30:22;;;;;;;5.95;3.47;;;;;;;23.28;57.50;94795.63;1772094;81;21047;-55
2022/06/12 09:33:10;;;;;;;4.10;3.70;;;;;;;23.17;58.13;94801.36;1772139;80;21093;-55
2022/06/12 09:35:58;;;;;;;7.72;3.25;;;;;;;23.19;59.02;94798.78;1772133;80;21025;-56
2022/06/12 09:38:40;;;;;;;5.83;4.30;;;;;;;23.21;57.68;94795.45;1772164;79;21552;-55
2022/06/12 09:41:22;;;;;;;4.53;3.60;;;;;;;23.22;57.76;94792.10;1772191;80;20984;-55
2022/06/12 09:44:14;;;;;;;4.78;3.60;;;;;;;23.19;57.99;94798.03;1772065;79;20950;-54
2022/06/12 09:47:05;;;;;;;4.50;3.37;;;;;;;23.10;58.18;94810.34;1771889;78;21469;-55
2022/06/12 09:49:42;;;;;;;5.30;4.28;;;;;;;23.10;58.18;94806.14;1771249;79;20981;-54
2022/06/12 09:52:34;;;;;;;4.53;3.77;;;;;;;23.04;57.24;94808.23;1772508;80;20993;-55
2022/06/12 09:55:20;;;;;;;;;;;;;;;23.00;58.18;94807.02;1774645;80;20950;-55
2022/06/12 09:57:59;;;;;;;7.33;4.37;;;;;;;22.91;56.77;94812.97;1772201;79;20116;-54
2022/06/12 10:00:52;;;;;;;4.50;3.62;;;;;;;22.67;57.44;94812.95;1770438;79;21106;-55
2022/06/12 10:03:31;;;;;;;6.03;4.25;;;;;;;22.59;58.50;94811.99;1771997;79;20973;-55
2022/06/12 10:06:25;;;;;;;5.80;4.35;;;;;;;22.55;59.09;94808.09;1771966;80;21177;-55
2022/06/12 10:09:11;;;;;;;4.20;3.77;;;;;;;22.53;58.97;94810.66;1772245;81;21000;-54
2022/06/12 10:11:47;;;;;;;7.40;4.45;;;;;;;22.54;59.84;94812.18;1772117;79;20985;-56
2022/06/12 10:14:24;;;;;;;6.97;4.40;;;;;;;22.44;58.65;94808.17;1771945;80;20982;-54
2022/06/12 10:17:05;;;;;;;4.50;4.05;;;;;;;22.33;59.34;94801.88;1771768;79;20923;-55
2022/06/12 10:20:07;;;;;;;5.72;4.53;;;;;;;22.25;59.14;94803.73;1771952;79;21046;-54
2022/06/12 10:22:43;;;;;;;4.80;4.35;;;;;;;22.16;59.26;94806.84;1772189;79;20949;-54
2022/06/12 10:25:33;;;;;;;7.20;4.95;;;;;;;22.04;59.89;94801.96;1772215;80;21102;-54
2022/06/12 10:28:08;;;;;;;5.55;4.50;;;;;;;22.01;60.53;94797.28;1750761;80;21125;-56
2022/06/12 10:30:45;;;;;;;13.78;5.60;;;;;;;22.04;59.99;94790.75;1770665;78;21040;-56
2022/06/12 10:33:32;;;;;;;8.63;5.70;;;;;;;22.08;60.91;94803.09;1769011;79;20945;-55
2022/06/12 10:36:02;;;;;;;7.08;4.92;;;;;;;22.16;60.25;94796.41;1750609;81;21036;-55
2022/06/12 10:38:33;;;;;;;6.75;4.75;;;;;;;22.21;60.87;94799.80;1772626;79;20950;-55
2022/06/12 10:41:04;;;;;;;8.35;4.97;;;;;;;22.18;60.67;94795.23;1772136;81;21048;-55
2022/06/12 10:43:40;;;;;;;6.08;4.85;;;;;;;22.06;60.68;94795.82;1772608;81;20949;-56
2022/06/12 10:46:31;;;;;;;9.55;5.30;;;;;;;21.92;60.81;94792.75;1771173;80;20973;-55
2022/06/12 10:49:19;;;;;;;5.60;5.10;;;;;;;21.73;61.02;94791.86;1772177;81;21033;-55
2022/06/12 10:51:47;;;;;;;5.35;4.85;;;;;;;21.63;62.49;94796.88;1772177;81;21021;-55
2022/06/12 10:54:22;;;;;;;5.80;5.10;;;;;;;21.51;62.87;94801.73;1772171;80;21127;-55
2022/06/12 10:57:13;;;;;;;6.40;5.35;;;;;;;21.48;62.64;94790.16;1772188;80;21013;-55
2022/06/12 10:59:54;;;;;;;9.00;5.70;;;;;;;21.48;62.88;94787.37;1771508;80;21006;-55
2022/06/12 11:02:42;;;;;;;8.20;5.30;;;;;;;21.44;62.92;94791.73;1771567;78;20981;-54
2022/06/12 11:05:34;;;;;;;5.72;4.87;;;;;;;21.47;63.51;94799.84;1772513;81;21098;-55
2022/06/12 11:08:32;;;;;;;16.27;6.90;;;;;;;21.48;63.89;94795.02;1772067;79;21232;-55
2022/06/12 11:11:39;;;;;;;8.08;6.35;;;;;;;21.48;63.46;94801.36;1772075;80;20965;-55
2022/06/12 11:14:19;;;;;;;6.00;5.40;;;;;;;21.43;63.95;94799.36;1772309;81;20988;-55
2022/06/12 11:17:18;;;;;;;8.25;5.35;;;;;;;21.38;64.28;94795.18;1750963;81;21013;-55
2022/06/12 11:20:06;;;;;;;5.72;5.00;;;;;;;21.31;64.39;94795.08;1728700;80;21481;-56
2022/06/12 11:22:51;;;;;;;5.78;5.00;;;;;;;21.29;64.22;94798.28;1758478;78;21155;-56
2022/06/12 11:25:33;;;;;;;8.93;5.92;;;;;;;21.31;64.36;94792.94;1772055;79;20997;-55
2022/06/12 11:28:13;;;;;;;7.00;6.35;;;;;;;21.35;63.79;94798.39;1772620;79;21421;-54
2022/06/12 11:31:07;;;;;;;8.83;5.33;;;;;;;21.40;64.17;94794.02;1772160;81;21005;-56
2022/06/12 11:34:13;;;;;;;8.18;5.67;;;;;;;21.48;64.15;94790.82;1755018;81;21480;-54
2022/06/12 11:36:49;;;;;;;8.58;6.12;;;;;;;21.65;64.50;94784.52;1772149;80;21741;-55
2022/06/12 11:39:37;;;;;;;8.55;7.05;;;;;;;21.84;62.69;94779.16;1772419;80;21044;-55
2022/06/12 11:42:47;;;;;;;7.58;6.10;;;;;;;22.00;63.10;94785.95;1772060;81;20966;-54
2022/06/12 11:45:32;;;;;;;10.72;6.03;;;;;;;22.25;63.05;94789.06;1772119;79;21449;-54
2022/06/12 11:48:20;;;;;;;10.05;5.90;;;;;;;22.59;62.23;94791.73;1772038;79;21017;-55
2022/06/12 11:51:26;;;;;;;6.87;5.62;;;;;;;22.87;60.06;94787.25;1772797;79;21114;-55
2022/06/12 11:54:28;;;;;;;7.35;5.75;;;;;;;23.12;59.55;94783.94;1772208;80;20949;-55
2022/06/12 11:57:04;;;;;;;10.05;6.97;;;;;;;23.26;59.40;94782.77;1772230;80;21033;-54
2022/06/12 11:59:44;;;;;;;6.05;5.55;;;;;;;23.30;57.20;94775.42;1772162;80;20998;-55
2022/06/12 12:02:43;;;;;;;8.05;5.40;;;;;;;23.26;57.87;94772.16;1772492;80;21002;-55
2022/06/12 12:05:34;;;;;;;6.03;5.42;;;;;;;23.25;56.74;94762.99;1772123;80;21141;-54
2022/06/12 12:08:30;;;;;;;12.23;5.77;;;;;;;23.10;57.42;94755.61;1772542;79;20977;-54
2022/06/12 12:11:20;;;;;;;6.87;6.10;;;;;;;23.13;57.82;94756.61;1772155;81;20957;-54
2022/06/12 12:13:50;;;;;;;8.18;6.00;;;;;;;23.37;58.05;94756.59;1772124;81;20986;-54
2022/06/12 12:16:45;;;;;;;7.37;6.50;;;;;;;23.63;58.81;94757.52;1772222;80;20992;-54
2022/06/12 12:19:41;;;;;;;9.13;6.92;;;;;;;23.70;56.90;94759.70;1771521;80;21270;-55
2022/06/12 12:22:37;;;;;;;6.60;5.80;;;;;;;23.73;56.91;94757.23;1771980;79;20942;-55
2022/06/12 12:25:19;;;;;;;6.83;5.15;;;;;;;23.70;56.12;94753.31;1750601;81;20992;-54
2022/06/12 12:27:50;;;;;;;6.85;5.10;;;;;;;23.45;56.32;94758.27;1750663;81;20973;-56
2022/06/12 12:30:25;;;;;;;5.33;4.85;;;;;;;23.19;56.19;94749.65;1772380;81;21040;-55